首页
METAR-TAF:

METAR-TAF

机场 :

阿什维尔, 北卡罗来纳州, 美国

纬度: 35-25-55N, 经度: 082-32-15W, 海拔: 660米

当前天气观测

该预报发布于44分钟前的08:05 UTC
风速8节,风向
温度 6°C
湿度 81%
气压 1014 hPa
能見度: 16.1公里
阴天层高于1000英尺

METAR: KAVL 170805Z AUTO 18008KT 10SM OVC010 06/03 A2993 RMK AO2 T00560028 $

时间: 03:49 (08:49 UTC)

预报

该预报发布于3小时和29分钟前的05:20 UTC
预报有效从17日的 06点(UTC)到 18日的 06点(UTC)
风速6节,风向东转东南
能見度: 10公里
阴天层高于900英尺
附近有阵雨
从 17日的 1000点(UTC)
风速6节,风向东转东南
能見度: 3.2公里
阴天层高于600英尺
轻雾, 附近有阵雨
从 17日的 1500点(UTC)
风速7节,风向东南
能見度: 6.4公里
阴天层高于600英尺
轻雾
几率 30%
从 17日的 15点(UTC)到 17日的 17点(UTC)
能見度: 3.2公里
阴天层高于100英尺
小雨, 毛毛雨
从 17日的 2200点(UTC)
风速6节,风向南转南东
能見度: 3.2公里
阴天层高于500英尺
小阵雨, 轻雾

TAF: KAVL 170520Z 1706/1806 12006KT P6SM VCSH OVC009 FM171000 12006KT 2SM BR VCSH OVC006 FM171500 14007KT 4SM BR OVC006 PROB30 1715/1717 2SM -RADZ OVC001 FM172200 15006KT 2SM -SHRA BR OVC005

超过4000个机场的气象观测和天气预报(METAR&TAF报告)。

可查询的气象台以黄色和红色小点在地图上表示。

将鼠标移到小点上方,可查看气象台名称。

然后点击查看天气观测和预报。

如需切换地图:点击带黑十字的绿色按钮放大地图;点击带横线的绿色按钮缩小地图;或者点击绿色箭头查看邻近地区的地图。


METAR-TAF: